SCTN

Chaitén Airfield

Airport
ICAO code
SCTN
IATA Code
WCH
Summary
ICAO Region
CARSAM
ICAO Territory
Location

Chaiten, Los Lagos

Serving
Chaiten
Elevation
13 ft
Coordinates
42° 55' 58" S , 72° 41' 57" W
KCC
Metar
Observation
SCTN 050500Z AUTO 19003KT 100V220 9999 OVC010 15/15 Q1015
Station
CHAITEN
Date/Time
2023-02-05 05:00:00
Wind direction
190°
Wind speed
03 kts
Lowest cloud amount
overcast
Temperature
15°C
Dew point
15°C
Humidity
100%
QNH
1015 hPa
Weather condition
n/a

Airport located near Chaitén, Los Lagos, Chile.

Climatology

Temperate oceanic climate (Köppen climate classification Cfb)

Runways

Designator Length Width Surface Rops
13/31 1423 20 ASP No/No

Airport map

Aerial View

SKYbrary Partners:

Safety knowledge contributed by: